createdAt,value
2017-08-21T00:02:08.775Z,15.83
2017-08-21T00:04:37.731Z,14.33
2017-08-21T00:07:06.132Z,13.30
2017-08-21T00:09:34.717Z,14.13
2017-08-21T00:12:03.655Z,13.10
2017-08-21T00:14:31.959Z,12.83
2017-08-21T00:17:01.399Z,12.53
2017-08-21T00:19:30.142Z,12.60
2017-08-21T00:21:58.247Z,11.73
2017-08-21T00:24:27.022Z,12.70
2017-08-21T00:26:55.506Z,13.50
2017-08-21T00:29:23.969Z,13.50
2017-08-21T00:31:52.082Z,13.83
2017-08-21T00:34:20.817Z,13.97
2017-08-21T00:36:49.406Z,13.77
2017-08-21T00:39:18.127Z,13.13
2017-08-21T00:41:47.287Z,15.07
2017-08-21T00:44:16.006Z,14.33
2017-08-21T00:46:44.459Z,14.10
2017-08-21T00:49:13.219Z,14.87
2017-08-21T00:51:41.934Z,14.03
2017-08-21T00:54:10.655Z,15.60
2017-08-21T00:56:39.141Z,14.60
2017-08-21T00:59:07.662Z,14.57
2017-08-21T01:01:36.482Z,15.10
2017-08-21T01:04:04.688Z,15.70
2017-08-21T01:06:33.007Z,15.10
2017-08-21T01:09:01.038Z,15.20
2017-08-21T01:11:29.766Z,15.90
2017-08-21T01:13:58.491Z,14.97
2017-08-21T01:16:27.206Z,16.73
2017-08-21T01:18:55.786Z,15.40
2017-08-21T01:21:24.239Z,15.53
2017-08-21T01:23:52.895Z,15.50
2017-08-21T01:26:21.746Z,16.63
2017-08-21T01:28:50.153Z,16.03
2017-08-21T01:31:18.195Z,17.10
2017-08-21T01:33:47.746Z,16.80
2017-08-21T01:36:16.334Z,18.50
2017-08-21T01:38:45.081Z,17.60
2017-08-21T01:41:13.667Z,17.87
2017-08-21T01:43:41.695Z,16.87
2017-08-21T01:46:10.142Z,20.40
2017-08-21T01:48:38.878Z,18.37
2017-08-21T01:51:07.662Z,19.23
2017-08-21T01:53:36.311Z,20.80
2017-08-21T01:56:05.101Z,22.70
2017-08-21T01:58:33.705Z,19.97
2017-08-21T02:01:02.316Z,20.30
2017-08-21T02:03:30.790Z,19.07
2017-08-21T02:05:59.356Z,20.50
2017-08-21T02:08:28.035Z,19.97
2017-08-21T02:10:56.886Z,20.50
2017-08-21T02:13:26.154Z,18.60
2017-08-21T02:15:54.170Z,22.30
2017-08-21T02:18:23.096Z,20.20
2017-08-21T02:20:51.134Z,21.97
2017-08-21T02:23:19.740Z,21.27
2017-08-21T02:25:48.542Z,20.23
2017-08-21T02:28:17.154Z,20.97
2017-08-21T02:30:45.878Z,21.10
2017-08-21T02:33:14.375Z,21.00
2017-08-21T02:35:42.782Z,20.53
2017-08-21T02:51:54.474Z,24.27
2017-08-21T02:54:22.502Z,22.23
2017-08-21T02:56:51.022Z,24.83
2017-08-21T02:59:19.837Z,22.90
2017-08-21T03:01:48.662Z,24.30
2017-08-21T03:04:17.062Z,22.60
2017-08-21T03:06:45.801Z,23.40
2017-08-21T03:09:14.386Z,24.03
2017-08-21T03:11:42.406Z,23.80
2017-08-21T03:14:11.142Z,22.97
2017-08-21T03:16:39.866Z,25.20
2017-08-21T03:19:08.279Z,23.80
2017-08-21T03:21:36.434Z,24.17
2017-08-21T03:24:05.906Z,23.57
2017-08-21T03:26:34.493Z,24.43
2017-08-21T03:29:03.310Z,24.97
2017-08-21T03:31:31.710Z,23.30
2017-08-21T03:34:00.517Z,26.30
2017-08-21T03:36:29.202Z,25.73
2017-08-21T03:38:57.231Z,21.30
2017-08-21T03:41:25.767Z,24.87
2017-08-21T03:43:54.579Z,24.63
2017-08-21T03:46:23.298Z,23.30
2017-08-21T03:48:51.690Z,23.10
2017-08-21T03:51:20.406Z,23.10
2017-08-21T03:53:49.087Z,22.93
2017-08-21T03:56:17.838Z,23.20
2017-08-21T03:58:46.426Z,23.03
2017-08-21T04:01:14.950Z,22.63
2017-08-21T04:03:43.630Z,22.20
2017-08-21T04:06:12.486Z,21.27
2017-08-21T04:08:40.618Z,22.10
2017-08-21T04:11:09.210Z,24.10
2017-08-21T04:13:38.144Z,20.80
2017-08-21T04:16:06.956Z,23.70
2017-08-21T04:18:35.426Z,21.87
2017-08-21T04:21:04.146Z,20.10
2017-08-21T04:23:32.900Z,19.70
2017-08-21T04:26:01.295Z,20.07
2017-08-21T04:28:29.999Z,19.63
2017-08-21T04:30:58.678Z,17.53
2017-08-21T04:33:27.356Z,18.57
2017-08-21T04:35:56.014Z,17.37
2017-08-21T04:38:24.546Z,15.93
2017-08-21T04:40:53.327Z,18.30
2017-08-21T04:43:22.186Z,16.30
2017-08-21T04:45:50.223Z,15.93
2017-08-21T04:48:18.803Z,17.87
2017-08-21T04:50:47.615Z,16.07
2017-08-21T04:53:16.088Z,15.80
2017-08-21T04:55:44.633Z,15.17
2017-08-21T04:58:13.450Z,16.40
2017-08-21T05:00:42.171Z,15.50
2017-08-21T05:03:11.359Z,15.50
2017-08-21T05:05:39.894Z,15.47
2017-08-21T05:08:08.583Z,16.87
2017-08-21T05:10:37.091Z,15.77
2017-08-21T05:13:05.826Z,15.40
2017-08-21T05:15:34.438Z,16.75
2017-08-21T05:18:03.050Z,14.35
2017-08-21T05:20:32.700Z,15.30
2017-08-21T05:23:01.218Z,14.52
2017-08-21T05:25:29.967Z,16.42
2017-08-21T05:27:58.257Z,15.50
2017-08-21T05:30:26.875Z,15.93
2017-08-21T05:32:55.559Z,15.30
2017-08-21T05:35:24.410Z,17.20
2017-08-21T05:37:52.478Z,16.97
2017-08-21T05:40:21.008Z,16.67
2017-08-21T05:42:49.960Z,15.48
2017-08-21T05:45:18.672Z,16.77
2017-08-21T05:47:47.210Z,16.37
2017-08-21T05:50:15.965Z,17.02
2017-08-21T05:52:44.651Z,16.33
2017-08-21T05:55:13.053Z,16.52
2017-08-21T05:57:41.179Z,15.63
2017-08-21T06:00:09.670Z,16.90
2017-08-21T06:02:38.271Z,17.15
2017-08-21T06:05:06.982Z,16.87
2017-08-21T06:07:35.031Z,16.90
2017-08-21T06:10:03.611Z,14.80
2017-08-21T06:12:32.399Z,18.40
2017-08-21T06:15:01.251Z,16.20
2017-08-21T06:17:29.282Z,16.20
2017-08-21T06:19:58.088Z,17.33
2017-08-21T06:22:26.114Z,15.97
2017-08-21T06:24:54.718Z,15.15
2017-08-21T06:27:23.629Z,15.15
2017-08-21T06:29:52.355Z,15.68
2017-08-21T06:32:20.763Z,14.43
2017-08-21T06:34:49.598Z,15.82
2017-08-21T06:37:18.174Z,14.10
2017-08-21T06:39:46.900Z,14.13
2017-08-21T06:42:15.467Z,14.32
2017-08-21T06:44:43.903Z,13.85
2017-08-21T06:47:12.591Z,14.35
2017-08-21T06:49:41.442Z,15.13
2017-08-21T06:52:10.538Z,16.15
2017-08-21T06:54:38.994Z,13.80
2017-08-21T06:57:07.757Z,13.15
2017-08-21T06:59:36.539Z,15.13
2017-08-21T07:02:05.319Z,13.65
2017-08-21T07:04:33.878Z,12.60
2017-08-21T07:07:02.394Z,13.20
2017-08-21T07:09:31.079Z,13.80
2017-08-21T07:11:59.203Z,12.75
2017-08-21T07:14:27.947Z,12.57
2017-08-21T07:16:55.982Z,12.20
2017-08-21T07:19:24.638Z,13.05
2017-08-21T07:21:53.218Z,13.27
2017-08-21T07:24:21.935Z,12.40
2017-08-21T07:26:50.091Z,13.45
2017-08-21T07:29:18.658Z,12.85
2017-08-21T07:31:47.382Z,12.75
2017-08-21T07:34:16.042Z,13.30
2017-08-21T07:36:44.599Z,12.10
2017-08-21T07:39:13.278Z,13.68
2017-08-21T07:41:42.240Z,15.32
2017-08-21T07:44:10.691Z,16.73
2017-08-21T07:46:39.241Z,17.75
2017-08-21T07:49:08.142Z,15.85
2017-08-21T07:51:36.878Z,17.48
2017-08-21T07:54:05.277Z,17.15
2017-08-21T07:56:34.024Z,16.42
2017-08-21T07:59:02.682Z,15.45
2017-08-21T08:01:31.355Z,15.60
2017-08-21T08:03:59.940Z,16.23
2017-08-21T08:06:28.538Z,17.37
2017-08-21T08:08:57.218Z,16.05
2017-08-21T08:11:26.111Z,15.50
2017-08-21T08:13:54.890Z,16.92
2017-08-21T08:16:23.475Z,16.37
2017-08-21T08:18:52.282Z,15.00
2017-08-21T08:21:20.970Z,16.25
2017-08-21T08:23:49.035Z,15.45
2017-08-21T08:26:17.827Z,15.57
2017-08-21T08:28:46.335Z,14.23
2017-08-21T08:31:14.984Z,17.10
2017-08-21T08:33:43.643Z,14.55
2017-08-21T08:36:12.090Z,15.32
2017-08-21T08:38:40.738Z,16.07
2017-08-21T08:41:09.293Z,15.67
2017-08-21T08:43:37.923Z,16.60
2017-08-21T08:46:06.606Z,14.97
2017-08-21T08:48:35.459Z,14.50
2017-08-21T08:51:03.865Z,16.20
2017-08-21T08:53:32.467Z,13.07
2017-08-21T08:56:01.382Z,13.70
2017-08-21T08:58:30.106Z,15.73
2017-08-21T09:00:58.508Z,15.30
2017-08-21T09:03:27.224Z,17.07
2017-08-21T09:05:56.002Z,15.40
2017-08-21T09:08:24.782Z,20.80
2017-08-21T09:10:53.446Z,16.60
2017-08-21T09:13:21.967Z,15.57
2017-08-21T09:15:50.678Z,16.77
2017-08-21T09:18:19.647Z,14.30
2017-08-21T09:20:48.114Z,16.43
2017-08-21T09:23:16.714Z,16.23
2017-08-21T09:25:45.498Z,16.67
2017-08-21T09:28:14.175Z,17.17
2017-08-21T09:30:42.706Z,16.30
2017-08-21T09:33:11.462Z,16.87
2017-08-21T09:35:40.167Z,16.50
2017-08-21T09:38:08.999Z,18.87
2017-08-21T09:40:37.527Z,18.23
2017-08-21T09:43:06.114Z,16.87
2017-08-21T09:45:34.746Z,17.00
2017-08-21T09:48:03.582Z,17.87
2017-08-21T09:50:32.544Z,17.90
2017-08-21T09:53:01.253Z,16.83
2017-08-21T09:55:29.910Z,18.47
2017-08-21T09:57:58.438Z,17.90
2017-08-21T10:00:27.118Z,18.90
2017-08-21T10:02:56.115Z,17.23
2017-08-21T10:05:25.450Z,14.40
2017-08-21T10:07:54.167Z,17.60
2017-08-21T10:10:22.750Z,16.70
2017-08-21T10:12:51.278Z,16.53
2017-08-21T10:15:19.957Z,16.63
2017-08-21T10:17:48.915Z,14.80
2017-08-21T10:20:17.529Z,15.93
2017-08-21T10:22:46.211Z,15.87
2017-08-21T10:25:15.018Z,14.40
2017-08-21T10:27:43.056Z,15.40
2017-08-21T10:30:11.611Z,15.10
2017-08-21T10:32:40.371Z,15.03
2017-08-21T10:35:09.046Z,15.10
2017-08-21T10:37:37.725Z,15.80
2017-08-21T10:40:05.882Z,15.40
2017-08-21T10:42:34.562Z,15.47
2017-08-21T10:45:02.959Z,15.60
2017-08-21T10:47:31.801Z,15.43
2017-08-21T10:50:00.382Z,16.53
2017-08-21T10:52:29.106Z,14.67
2017-08-21T10:54:57.310Z,16.60
2017-08-21T10:57:25.940Z,14.10
2017-08-21T10:59:54.659Z,14.20
2017-08-21T11:02:23.510Z,13.20
2017-08-21T11:04:51.955Z,14.43
2017-08-21T11:07:20.478Z,14.90
2017-08-21T11:09:49.234Z,15.30
2017-08-21T11:12:17.706Z,16.03
2017-08-21T11:14:45.742Z,14.03
2017-08-21T11:17:14.274Z,14.43
2017-08-21T11:19:42.862Z,15.20
2017-08-21T11:22:11.571Z,12.87
2017-08-21T11:24:40.545Z,14.47
2017-08-21T11:27:09.322Z,14.10
2017-08-21T11:29:37.915Z,13.47
2017-08-21T11:32:06.711Z,13.27
2017-08-21T11:34:34.735Z,15.83
2017-08-21T11:37:03.190Z,13.37
2017-08-21T11:39:32.058Z,13.40
2017-08-21T11:42:00.734Z,14.50
2017-08-21T11:44:29.503Z,13.10
2017-08-21T11:46:58.173Z,15.70
2017-08-21T11:49:26.699Z,14.20
2017-08-21T11:51:55.395Z,13.37
2017-08-21T11:54:23.546Z,15.67
2017-08-21T11:56:52.146Z,13.63
2017-08-21T11:59:20.894Z,14.53
2017-08-21T12:01:49.383Z,13.97
2017-08-21T12:04:18.019Z,13.80
2017-08-21T12:06:46.587Z,14.40
2017-08-21T12:09:15.190Z,14.33
2017-08-21T12:11:43.763Z,13.63
2017-08-21T12:14:12.370Z,14.83
2017-08-21T12:16:41.298Z,14.50
2017-08-21T12:19:09.708Z,14.87
2017-08-21T12:21:38.311Z,14.13
2017-08-21T12:24:07.222Z,13.37
2017-08-21T12:26:35.241Z,12.93
2017-08-21T12:29:03.858Z,12.23
2017-08-21T12:31:32.640Z,13.80
2017-08-21T12:34:01.418Z,13.97
2017-08-21T12:36:29.894Z,13.40
2017-08-21T12:38:58.733Z,13.00
2017-08-21T12:41:27.418Z,14.50
2017-08-21T12:43:56.078Z,13.60
2017-08-21T12:46:24.854Z,13.90
2017-08-21T12:48:53.386Z,16.00
2017-08-21T12:51:21.971Z,14.87
2017-08-21T12:53:50.831Z,13.60
2017-08-21T12:56:19.573Z,14.60
2017-08-21T12:58:48.026Z,16.13
2017-08-21T13:01:16.800Z,13.70
2017-08-21T13:03:45.478Z,15.23
2017-08-21T13:06:14.251Z,16.23
2017-08-21T13:08:42.920Z,17.10
2017-08-21T13:11:11.363Z,16.60
2017-08-21T13:13:39.978Z,15.07
2017-08-21T13:16:08.759Z,15.23
2017-08-21T13:18:37.218Z,15.73
2017-08-21T13:21:06.557Z,16.67
2017-08-21T13:23:35.287Z,16.20
2017-08-21T13:26:03.894Z,15.80
2017-08-21T13:28:32.383Z,16.10
2017-08-21T13:31:01.099Z,16.13
2017-08-21T13:33:29.646Z,16.40
2017-08-21T13:35:58.375Z,16.60
2017-08-21T13:38:26.964Z,14.60
2017-08-21T13:40:55.406Z,15.53
2017-08-21T13:43:24.159Z,14.87
2017-08-21T13:45:53.115Z,16.27
2017-08-21T13:48:21.513Z,14.13
2017-08-21T13:50:50.122Z,16.00
2017-08-21T13:53:18.834Z,16.40
2017-08-21T13:55:47.272Z,14.57
2017-08-21T13:58:15.874Z,14.40
2017-08-21T14:00:44.665Z,16.80
2017-08-21T14:03:13.350Z,17.57
2017-08-21T14:05:42.130Z,17.00
2017-08-21T14:08:10.953Z,16.87
2017-08-21T14:10:39.528Z,16.77
2017-08-21T14:13:08.133Z,17.33
2017-08-21T14:15:36.331Z,17.90
2017-08-21T14:18:05.771Z,18.70
2017-08-21T14:20:34.248Z,19.10
2017-08-21T14:23:03.095Z,18.53
2017-08-21T14:25:31.746Z,17.37
2017-08-21T14:28:00.389Z,17.57
2017-08-21T14:30:28.522Z,18.40
2017-08-21T14:32:57.185Z,18.00
2017-08-21T14:35:25.966Z,17.87
2017-08-21T14:37:54.527Z,18.27
2017-08-21T14:40:22.946Z,19.73
2017-08-21T14:42:51.062Z,20.57
2017-08-21T14:45:19.810Z,19.87
2017-08-21T14:47:48.391Z,19.30
2017-08-21T14:50:17.066Z,20.30
2017-08-21T14:52:45.681Z,18.47
2017-08-21T14:55:14.250Z,19.40
2017-08-21T14:57:42.270Z,20.50
2017-08-21T15:00:11.143Z,18.47
2017-08-21T15:02:39.722Z,19.17
2017-08-21T15:05:08.686Z,19.80
2017-08-21T15:07:37.683Z,17.90
2017-08-21T15:10:06.462Z,17.60
2017-08-21T15:12:34.591Z,18.30
2017-08-21T15:15:03.366Z,20.00
2017-08-21T15:17:32.013Z,19.40
2017-08-21T15:20:00.542Z,18.23
2017-08-21T15:22:29.294Z,20.93
2017-08-21T15:24:57.986Z,19.47
2017-08-21T15:27:26.743Z,20.03
2017-08-21T15:29:55.323Z,19.60
2017-08-21T15:32:23.946Z,20.83
2017-08-21T15:34:51.990Z,20.57
2017-08-21T15:37:20.734Z,20.90
2017-08-21T15:39:49.305Z,22.73
2017-08-21T15:42:17.963Z,18.07
2017-08-21T15:44:46.622Z,20.60
2017-08-21T15:47:15.147Z,18.40
2017-08-21T15:49:43.830Z,21.10
2017-08-21T15:52:12.727Z,21.43
2017-08-21T15:54:40.762Z,20.93
2017-08-21T15:57:09.513Z,20.60
2017-08-21T15:59:38.278Z,22.00
2017-08-21T16:02:06.949Z,21.27
2017-08-21T16:04:35.501Z,22.80
2017-08-21T16:07:04.248Z,18.97
2017-08-21T16:09:32.899Z,20.30
2017-08-21T16:12:01.601Z,21.77
2017-08-21T16:14:30.051Z,19.60
2017-08-21T16:16:58.602Z,20.80
2017-08-21T16:19:27.323Z,21.63
2017-08-21T16:21:56.345Z,19.93
2017-08-21T16:24:24.817Z,19.77
2017-08-21T16:26:53.425Z,23.53
2017-08-21T16:29:22.339Z,23.03
2017-08-21T16:31:51.066Z,24.10
2017-08-21T16:34:19.462Z,22.67
2017-08-21T16:36:48.381Z,21.17
2017-08-21T16:39:16.990Z,22.63
2017-08-21T16:41:45.854Z,23.50
2017-08-21T16:44:14.466Z,23.80
2017-08-21T16:46:42.857Z,20.80
2017-08-21T16:49:11.506Z,22.80
2017-08-21T16:51:40.359Z,21.70
2017-08-21T16:54:08.962Z,25.33
2017-08-21T16:56:37.578Z,25.20
2017-08-21T16:59:06.390Z,24.13
2017-08-21T17:01:35.110Z,22.67
2017-08-21T17:04:03.562Z,24.67
2017-08-21T17:06:32.214Z,22.80
2017-08-21T17:09:00.902Z,22.97
2017-08-21T17:11:29.863Z,24.50
2017-08-21T17:13:58.337Z,23.67
2017-08-21T17:16:26.970Z,24.77
2017-08-21T17:18:56.262Z,24.17
2017-08-21T17:21:24.986Z,22.60
2017-08-21T17:23:53.562Z,23.90
2017-08-21T17:26:22.112Z,24.07
2017-08-21T17:28:50.700Z,25.90
2017-08-21T17:31:19.298Z,25.00
2017-08-21T17:33:47.874Z,24.93
2017-08-21T17:36:16.970Z,25.57
2017-08-21T17:38:45.721Z,24.27
2017-08-21T17:41:14.230Z,25.40
2017-08-21T17:43:43.170Z,25.00
2017-08-21T17:46:11.651Z,24.90
2017-08-21T17:48:40.371Z,26.07
2017-08-21T17:51:08.962Z,24.53
2017-08-21T17:53:37.278Z,24.40
2017-08-21T17:56:05.927Z,27.07
2017-08-21T17:58:34.402Z,25.20
2017-08-21T18:01:02.822Z,25.80
2017-08-21T18:03:31.506Z,26.43
2017-08-21T18:06:00.015Z,24.07
2017-08-21T18:08:28.583Z,25.97
2017-08-21T18:10:57.263Z,27.50
2017-08-21T18:13:25.941Z,26.77
2017-08-21T18:15:54.415Z,27.93
2017-08-21T18:18:23.052Z,27.70
2017-08-21T18:20:51.810Z,30.73
2017-08-21T18:23:20.587Z,30.40
2017-08-21T18:25:49.058Z,29.93
2017-08-21T18:28:17.771Z,29.30
2017-08-21T18:30:45.794Z,30.07
2017-08-21T18:33:14.322Z,29.77
2017-08-21T18:35:43.018Z,28.57
2017-08-21T18:38:11.662Z,25.93
2017-08-21T18:40:40.154Z,25.17
2017-08-21T18:43:09.006Z,25.43
2017-08-21T18:45:37.586Z,26.40
2017-08-21T18:48:06.231Z,25.13
2017-08-21T18:50:34.791Z,24.73
2017-08-21T18:53:03.311Z,24.67
2017-08-21T18:55:31.894Z,22.90
2017-08-21T18:58:00.747Z,24.57
2017-08-21T19:00:29.742Z,23.53
2017-08-21T19:02:58.144Z,23.53
2017-08-21T19:05:26.856Z,24.50
2017-08-21T19:07:55.430Z,24.77
2017-08-21T19:10:24.212Z,22.60
2017-08-21T19:12:52.766Z,20.80
2017-08-21T19:15:21.291Z,19.57
2017-08-21T19:17:49.974Z,18.50
2017-08-21T19:20:18.136Z,23.03
2017-08-21T19:22:46.766Z,21.80
2017-08-21T19:25:15.414Z,22.60
2017-08-21T19:27:44.015Z,21.63
2017-08-21T19:30:12.494Z,23.17
2017-08-21T19:32:41.106Z,21.17
2017-08-21T19:35:09.222Z,22.27
2017-08-21T19:37:37.867Z,22.17
2017-08-21T19:40:06.486Z,21.40
2017-08-21T19:42:34.610Z,21.43
2017-08-21T19:45:03.246Z,22.60
2017-08-21T19:47:31.934Z,22.70
2017-08-21T19:50:00.694Z,23.50
2017-08-21T19:52:28.827Z,24.20
2017-08-21T19:54:57.614Z,24.00
2017-08-21T19:57:26.135Z,23.97
2017-08-21T19:59:54.703Z,22.40
2017-08-21T20:02:23.542Z,23.70
2017-08-21T20:04:52.111Z,24.17
2017-08-21T20:07:20.553Z,24.57
2017-08-21T20:09:49.163Z,23.27
2017-08-21T20:12:18.024Z,25.10
2017-08-21T20:14:46.054Z,22.67
2017-08-21T20:17:14.610Z,23.20
2017-08-21T20:19:43.434Z,22.03
2017-08-21T20:22:11.836Z,23.00
2017-08-21T20:24:40.646Z,20.70
2017-08-21T20:27:09.538Z,21.43
2017-08-21T20:29:38.146Z,19.60
2017-08-21T20:32:06.905Z,22.23
2017-08-21T20:34:35.538Z,22.30
2017-08-21T20:37:04.083Z,20.33
2017-08-21T20:39:32.766Z,19.37
2017-08-21T20:42:01.659Z,18.00
2017-08-21T20:44:30.306Z,19.17
2017-08-21T20:46:58.587Z,20.83
2017-08-21T20:49:27.618Z,18.93
2017-08-21T20:51:56.206Z,19.83
2017-08-21T20:54:24.338Z,19.60
2017-08-21T20:56:52.970Z,19.87
2017-08-21T20:59:21.647Z,19.50
2017-08-21T21:01:49.667Z,18.77
2017-08-21T21:04:18.350Z,19.43
2017-08-21T21:06:46.378Z,20.37
2017-08-21T21:09:14.494Z,20.37
2017-08-21T21:11:43.007Z,20.83
2017-08-21T21:14:11.651Z,20.53
2017-08-21T21:16:40.271Z,23.33
2017-08-21T21:19:08.762Z,20.67
2017-08-21T21:21:37.378Z,20.83
2017-08-21T21:24:05.962Z,19.83
2017-08-21T21:26:34.918Z,21.07
2017-08-21T21:29:03.243Z,21.27
2017-08-21T21:31:31.759Z,22.57
2017-08-21T21:34:00.638Z,21.10
2017-08-21T21:36:29.259Z,20.37
2017-08-21T21:38:57.659Z,21.03
2017-08-21T21:41:26.262Z,24.33
2017-08-21T21:43:54.911Z,24.03
2017-08-21T21:46:23.307Z,23.17
2017-08-21T21:48:51.873Z,21.90
2017-08-21T21:51:20.497Z,21.70
2017-08-21T21:53:49.176Z,22.47
2017-08-21T21:56:17.289Z,19.97
2017-08-21T21:58:45.975Z,21.73
2017-08-21T22:01:14.567Z,21.03
2017-08-21T22:03:43.251Z,20.53
2017-08-21T22:06:11.830Z,20.53
2017-08-21T22:08:40.377Z,18.83
2017-08-21T22:11:09.170Z,21.47
2017-08-21T22:13:37.770Z,20.43
2017-08-21T22:16:06.382Z,20.10
2017-08-21T22:18:35.139Z,21.33
2017-08-21T22:21:03.603Z,21.53
2017-08-21T22:23:32.026Z,19.90
2017-08-21T22:26:00.851Z,19.53
2017-08-21T22:28:29.262Z,19.27
2017-08-21T22:30:57.791Z,18.67
2017-08-21T22:33:26.543Z,21.70
2017-08-21T22:35:55.220Z,21.03
2017-08-21T22:38:23.747Z,21.87
2017-08-21T22:40:52.405Z,23.40
2017-08-21T22:43:21.090Z,21.53
2017-08-21T22:45:49.868Z,20.50
2017-08-21T22:48:18.430Z,20.40
2017-08-21T22:50:46.878Z,20.70
2017-08-21T22:53:15.666Z,20.90
2017-08-21T22:55:43.792Z,21.37
2017-08-21T22:58:12.427Z,19.73
2017-08-21T23:00:41.078Z,21.37
2017-08-21T23:03:09.191Z,19.13
2017-08-21T23:05:37.839Z,19.87
2017-08-21T23:08:06.619Z,20.43
2017-08-21T23:10:35.251Z,20.63
2017-08-21T23:13:03.825Z,21.27
2017-08-21T23:15:32.373Z,19.93
2017-08-21T23:18:01.029Z,20.23
2017-08-21T23:20:29.549Z,19.70
2017-08-21T23:22:57.570Z,20.50
2017-08-21T23:25:26.209Z,20.60
2017-08-21T23:27:54.825Z,19.40
2017-08-21T23:30:23.576Z,21.30
2017-08-21T23:32:52.280Z,21.77
2017-08-21T23:35:20.867Z,19.67
2017-08-21T23:37:48.898Z,17.50
2017-08-21T23:40:17.551Z,21.40
2017-08-21T23:42:46.026Z,21.07
2017-08-21T23:45:14.675Z,20.80
2017-08-21T23:47:43.402Z,19.90
2017-08-21T23:50:11.985Z,20.37
2017-08-21T23:52:40.646Z,19.97
2017-08-21T23:55:08.874Z,21.67
2017-08-21T23:57:37.406Z,22.03
